KCVO/CVO METAR and TAF weather

Enter ICAO airport designator
Station Type Date Time Source
KCVO METAR 2022/06/26 06:56 UTC NOAA

KCVO 260656Z AUTO 30006KT 10SM CLR 20/10 A2995 RMK AO2 SLP140 T02000100


Station Type Date Time Source
KCVO Decoded METAR 2022/06/26 06:56 UTC NOAA

Corvallis, Corvallis Municipal Airport, OR, United States (KCVO) 44-30N 123-17W
Jun 26, 2022 - 02:56 AM EDT / 2022.06.26 0656 UTC
Wind: from the WNW (300 degrees) at 7 MPH (6 KT):0
Visibility: 10 mile(s):0
Sky conditions: clear
Temperature: 68.0 F (20.0 C)
Dew Point: 50.0 F (10.0 C)
Relative Humidity: 52%
Pressure (altimeter): 29.95 in. Hg (1014 hPa)
ob: KCVO 260656Z AUTO 30006KT 10SM CLR 20/10 A2995 RMK AO2 SLP140 T02000100
cycle: 7

Station Type Date Time Source
KCVO TAF UTC NOAA

Error!

Example: see airport list